Time;durP1;ratioP1;P1;durP2;ratioP2;P2;SDS_P1;SDS_P2;PMS_P1;PMS_P2;Temp;Humidity;BMP_temperature;BMP_pressure;BME280_temperature;BME280_humidity;BME280_pressure;Samples;Min_cycle;Max_cycle;Signal;HPM_P1;HPM_P2
2021/09/21 00:00:58;;;;;;;;;;;21.60;62.00;;;;;;507442;235;1125;-46
2021/09/21 00:02:59;;;;;;;;;;;21.60;61.90;;;;;;499600;237;1252;-46
2021/09/21 00:05:00;;;;;;;;;;;21.60;61.80;;;;;;507204;235;1126;-46
2021/09/21 00:07:02;;;;;;;;;;;21.60;61.80;;;;;;499053;237;1449;-46
2021/09/21 00:09:04;;;;;;;;;;;21.60;61.80;;;;;;507098;235;1198;-46
2021/09/21 00:11:05;;;;;;;;;;;21.60;61.90;;;;;;499040;237;1186;-47
2021/09/21 00:13:06;;;;;;;;;;;21.60;61.90;;;;;;507181;235;1180;-46
2021/09/21 00:15:08;;;;;;;;;;;21.50;61.80;;;;;;499409;237;2109;-46
2021/09/21 00:17:09;;;;;;;;;;;21.60;61.80;;;;;;507444;235;1305;-46
2021/09/21 00:19:10;;;;;;;;;;;21.60;61.70;;;;;;499122;237;1062;-46
2021/09/21 00:21:11;;;;;;;;;;;21.60;61.70;;;;;;506923;235;1215;-45
2021/09/21 00:23:13;;;;;;;;;;;21.60;61.80;;;;;;499056;237;1277;-47
2021/09/21 00:25:14;;;;;;;;;;;21.60;61.90;;;;;;507162;235;1038;-47
2021/09/21 00:27:15;;;;;;;;;;;21.60;62.00;;;;;;499097;237;1515;-47
2021/09/21 00:29:17;;;;;;;;;;;21.60;61.90;;;;;;507227;235;1033;-46
2021/09/21 00:31:20;;;;;;;;;;;21.60;61.80;;;;;;499040;237;1237;-47
2021/09/21 00:33:20;;;;;;;;;;;21.60;61.80;;;;;;506820;235;2089;-47
2021/09/21 00:35:21;;;;;;;;;;;21.60;61.80;;;;;;499231;237;2252;-46
2021/09/21 00:37:22;;;;;;;;;;;21.60;61.80;;;;;;507135;235;1193;-46
2021/09/21 00:39:23;;;;;;;;;;;21.60;61.70;;;;;;499136;237;1065;-46
2021/09/21 00:41:25;;;;;;;;;;;21.60;61.80;;;;;;507019;235;1192;-47
2021/09/21 00:43:26;;;;;;;;;;;21.60;61.90;;;;;;499480;237;1245;-46
2021/09/21 00:45:27;;;;;;;;;;;21.50;61.90;;;;;;507265;235;1146;-47
2021/09/21 00:47:29;;;;;;;;;;;21.50;61.90;;;;;;499547;237;1071;-47
2021/09/21 00:49:30;;;;;;;;;;;21.60;61.80;;;;;;507525;235;1070;-47
2021/09/21 00:51:31;;;;;;;;;;;21.60;61.90;;;;;;499117;237;1137;-47
2021/09/21 00:53:33;;;;;;;;;;;21.60;61.90;;;;;;507229;235;1131;-46
2021/09/21 00:55:34;;;;;;;;;;;21.60;61.90;;;;;;499133;237;2189;-46
2021/09/21 00:57:35;;;;;;;;;;;21.60;61.90;;;;;;506994;235;1304;-46
2021/09/21 00:59:36;;;;;;;;;;;21.60;61.90;;;;;;499534;237;1073;-47
2021/09/21 01:01:38;;;;;;;;;;;21.50;61.90;;;;;;507000;235;1153;-46
2021/09/21 01:03:39;;;;;;;;;;;21.60;61.80;;;;;;499299;237;1059;-46
2021/09/21 01:05:40;;;;;;;;;;;21.60;61.80;;;;;;507263;235;1369;-47
2021/09/21 01:07:42;;;;;;;;;;;21.50;61.80;;;;;;499561;237;1176;-46
2021/09/21 01:09:43;;;;;;;;;;;21.50;61.90;;;;;;507292;235;1081;-47
2021/09/21 01:11:44;;;;;;;;;;;21.60;62.00;;;;;;499131;237;1396;-46
2021/09/21 01:13:46;;;;;;;;;;;21.50;61.90;;;;;;506872;235;1079;-47
2021/09/21 01:15:47;;;;;;;;;;;21.50;61.90;;;;;;499203;237;2101;-47
2021/09/21 01:17:50;;;;;;;;;;;21.40;62.00;;;;;;507039;235;1061;-46
2021/09/21 01:19:50;;;;;;;;;;;21.50;62.00;;;;;;499118;237;1998;-46
2021/09/21 01:21:51;;;;;;;;;;;21.60;61.90;;;;;;507427;235;1146;-47
2021/09/21 01:23:52;;;;;;;;;;;21.50;61.90;;;;;;499324;237;1193;-47
2021/09/21 01:25:54;;;;;;;;;;;21.60;61.90;;;;;;507421;235;1066;-46
2021/09/21 01:27:55;;;;;;;;;;;21.60;61.80;;;;;;499616;237;1023;-46
2021/09/21 01:29:56;;;;;;;;;;;21.60;61.80;;;;;;507300;235;1048;-46
2021/09/21 01:31:58;;;;;;;;;;;21.60;61.80;;;;;;499083;237;1466;-47
2021/09/21 01:33:59;;;;;;;;;;;21.50;61.80;;;;;;507217;235;1226;-46
2021/09/21 01:36:00;;;;;;;;;;;21.60;61.90;;;;;;499094;237;2098;-46
2021/09/21 01:38:01;;;;;;;;;;;21.60;61.80;;;;;;507254;235;1373;-46
2021/09/21 01:40:03;;;;;;;;;;;21.60;61.80;;;;;;499104;237;1136;-47
2021/09/21 01:42:04;;;;;;;;;;;21.60;61.80;;;;;;507019;235;1224;-46
2021/09/21 01:44:05;;;;;;;;;;;21.60;61.80;;;;;;499263;237;1024;-46
2021/09/21 01:46:07;;;;;;;;;;;21.60;61.90;;;;;;506916;235;1418;-46
2021/09/21 01:48:08;;;;;;;;;;;21.60;61.90;;;;;;499422;237;1061;-46
2021/09/21 01:52:34;;;;;;;;;;;21.50;61.90;;;;;;496977;240;1916;-47
2021/09/21 01:54:46;;;;;;;;;;;21.50;61.90;;;;;;506869;235;2302;-46
2021/09/21 01:58:57;;;;;;;;;;;21.50;61.90;;;;;;487747;239;1184;-47
2021/09/21 02:00:58;;;;;;;;;;;21.60;61.90;;;;;;507171;235;1181;-46
2021/09/21 02:03:00;;;;;;;;;;;21.50;61.90;;;;;;499220;237;1224;-46
2021/09/21 02:05:01;;;;;;;;;;;21.60;61.90;;;;;;507008;235;1091;-47
2021/09/21 02:07:02;;;;;;;;;;;21.60;61.80;;;;;;499140;237;1191;-46
2021/09/21 02:09:03;;;;;;;;;;;21.50;61.80;;;;;;507296;235;1155;-46
2021/09/21 02:11:05;;;;;;;;;;;21.50;61.90;;;;;;499071;237;1148;-46
2021/09/21 02:13:06;;;;;;;;;;;21.60;61.90;;;;;;507202;235;1059;-46
2021/09/21 02:15:07;;;;;;;;;;;21.60;61.90;;;;;;499598;237;2188;-46
2021/09/21 02:17:09;;;;;;;;;;;21.60;61.90;;;;;;506939;235;1169;-47
2021/09/21 02:19:10;;;;;;;;;;;21.50;61.80;;;;;;499366;237;1053;-46
2021/09/21 02:21:11;;;;;;;;;;;21.50;61.90;;;;;;507021;234;1091;-46
2021/09/21 02:23:13;;;;;;;;;;;21.50;61.80;;;;;;499525;237;1373;-46
2021/09/21 02:25:14;;;;;;;;;;;21.50;62.00;;;;;;507021;235;1160;-46
2021/09/21 02:27:15;;;;;;;;;;;21.50;61.90;;;;;;499162;237;1329;-46
2021/09/21 02:29:17;;;;;;;;;;;21.60;61.90;;;;;;507036;235;2181;-47
2021/09/21 02:31:19;;;;;;;;;;;21.60;61.90;;;;;;499435;237;1382;-46
2021/09/21 02:33:19;;;;;;;;;;;21.50;61.90;;;;;;507142;235;1215;-46
2021/09/21 02:35:21;;;;;;;;;;;21.50;61.90;;;;;;499523;237;2180;-46
2021/09/21 02:37:22;;;;;;;;;;;21.50;62.00;;;;;;506915;235;1159;-47
2021/09/21 02:39:23;;;;;;;;;;;21.50;62.10;;;;;;499424;237;1174;-46
2021/09/21 02:41:25;;;;;;;;;;;21.50;62.10;;;;;;506968;235;1216;-46
2021/09/21 02:43:26;;;;;;;;;;;21.50;62.00;;;;;;499404;237;1275;-47
2021/09/21 02:45:27;;;;;;;;;;;21.50;62.00;;;;;;507448;235;1085;-46
2021/09/21 02:47:29;;;;;;;;;;;21.50;61.90;;;;;;499195;237;1172;-46
2021/09/21 02:49:30;;;;;;;;;;;21.50;62.00;;;;;;507018;235;1050;-47
2021/09/21 02:51:31;;;;;;;;;;;21.50;61.90;;;;;;499405;237;1225;-46
2021/09/21 02:53:33;;;;;;;;;;;21.50;61.80;;;;;;507396;235;1054;-46
2021/09/21 02:55:34;;;;;;;;;;;21.50;61.90;;;;;;499076;237;2145;-47
2021/09/21 02:57:35;;;;;;;;;;;21.50;61.80;;;;;;507024;235;1162;-47
2021/09/21 02:59:37;;;;;;;;;;;21.50;61.80;;;;;;499312;237;1028;-47
2021/09/21 03:01:38;;;;;;;;;;;21.50;61.80;;;;;;506899;235;1139;-46
2021/09/21 03:03:44;;;;;;;;;;;21.50;61.80;;;;;;499124;237;1019;-46
2021/09/21 03:05:44;;;;;;;;;;;21.50;61.90;;;;;;506781;235;2236;-47
2021/09/21 03:07:47;;;;;;;;;;;21.50;61.90;;;;;;499471;239;1871;-46
2021/09/21 03:09:53;;;;;;;;;;;21.50;61.90;;;;;;506847;235;1312;-46
2021/09/21 03:11:56;;;;;;;;;;;21.50;61.90;;;;;;499097;239;1258;-46
2021/09/21 03:18:41;;;;;;;;;;;21.50;62.10;;;;;;480772;246;1196;-46
2021/09/21 03:20:42;;;;;;;;;;;21.50;62.00;;;;;;495917;239;1199;-46
2021/09/21 03:22:43;;;;;;;;;;;21.50;62.00;;;;;;506932;235;1155;-47
2021/09/21 03:24:45;;;;;;;;;;;21.50;61.90;;;;;;499260;237;1284;-46
2021/09/21 03:26:46;;;;;;;;;;;21.50;62.00;;;;;;506865;235;1362;-47
2021/09/21 03:28:47;;;;;;;;;;;21.50;62.00;;;;;;499571;237;1037;-47
2021/09/21 03:30:49;;;;;;;;;;;21.50;62.00;;;;;;506867;235;1381;-46
2021/09/21 03:32:50;;;;;;;;;;;21.50;62.00;;;;;;499055;237;1048;-46
2021/09/21 03:34:51;;;;;;;;;;;21.50;62.00;;;;;;507454;235;2098;-46
2021/09/21 03:36:53;;;;;;;;;;;21.50;62.00;;;;;;499042;237;1307;-46
2021/09/21 03:38:54;;;;;;;;;;;21.50;61.90;;;;;;507450;235;1046;-46
2021/09/21 03:40:55;;;;;;;;;;;21.50;61.90;;;;;;499078;237;1334;-46
2021/09/21 03:42:57;;;;;;;;;;;21.50;62.00;;;;;;507251;235;1070;-46
2021/09/21 03:44:58;;;;;;;;;;;21.50;61.90;;;;;;499636;237;1089;-47
2021/09/21 03:46:59;;;;;;;;;;;21.50;62.00;;;;;;506963;235;1289;-46
2021/09/21 03:49:01;;;;;;;;;;;21.50;62.00;;;;;;499491;237;1144;-46
2021/09/21 03:51:02;;;;;;;;;;;21.50;61.90;;;;;;507470;235;1183;-46
2021/09/21 03:53:03;;;;;;;;;;;21.50;61.80;;;;;;499460;237;1210;-46
2021/09/21 03:55:05;;;;;;;;;;;21.50;61.80;;;;;;507307;235;2133;-46
2021/09/21 03:57:06;;;;;;;;;;;21.50;62.00;;;;;;499250;237;1128;-47
2021/09/21 03:59:07;;;;;;;;;;;21.50;62.00;;;;;;506935;235;1033;-46
2021/09/21 04:01:09;;;;;;;;;;;21.50;62.00;;;;;;499206;237;1163;-46
2021/09/21 04:03:10;;;;;;;;;;;21.50;62.00;;;;;;506943;235;1171;-46
2021/09/21 04:05:11;;;;;;;;;;;21.50;61.80;;;;;;499113;237;1046;-46
2021/09/21 04:07:12;;;;;;;;;;;21.50;61.70;;;;;;507255;235;1464;-46
2021/09/21 04:09:14;;;;;;;;;;;21.50;61.80;;;;;;499083;237;1169;-47
2021/09/21 04:11:15;;;;;;;;;;;21.50;61.70;;;;;;507027;235;1178;-46
2021/09/21 04:13:16;;;;;;;;;;;21.50;61.80;;;;;;499233;237;1107;-47
2021/09/21 04:15:18;;;;;;;;;;;21.60;61.70;;;;;;507332;235;2192;-47
2021/09/21 04:17:19;;;;;;;;;;;21.50;61.70;;;;;;499009;237;1317;-46
2021/09/21 04:19:20;;;;;;;;;;;21.50;61.80;;;;;;507377;235;1203;-46
2021/09/21 04:21:22;;;;;;;;;;;21.50;61.80;;;;;;499120;237;1414;-46
2021/09/21 04:23:23;;;;;;;;;;;21.50;61.90;;;;;;506985;235;1204;-46
2021/09/21 04:25:24;;;;;;;;;;;21.50;61.80;;;;;;499157;237;1551;-47
2021/09/21 04:27:26;;;;;;;;;;;21.50;61.80;;;;;;506881;235;1484;-46
2021/09/21 04:29:27;;;;;;;;;;;21.50;61.60;;;;;;499046;237;1258;-46
2021/09/21 04:31:28;;;;;;;;;;;21.50;61.80;;;;;;506988;235;1451;-46
2021/09/21 04:33:30;;;;;;;;;;;21.50;61.80;;;;;;499048;237;1309;-47
2021/09/21 04:35:31;;;;;;;;;;;21.50;61.80;;;;;;507311;235;2169;-47
2021/09/21 04:37:33;;;;;;;;;;;21.50;61.80;;;;;;499426;237;1248;-47
2021/09/21 04:39:40;;;;;;;;;;;21.40;61.80;;;;;;507000;235;1058;-46
2021/09/21 04:41:36;;;;;;;;;;;21.50;61.80;;;;;;498650;239;2282;-46
2021/09/21 04:43:37;;;;;;;;;;;21.50;61.80;;;;;;506772;235;1038;-47
2021/09/21 04:45:38;;;;;;;;;;;21.50;62.00;;;;;;498949;237;1558;-47
2021/09/21 04:47:39;;;;;;;;;;;21.40;61.90;;;;;;506681;235;1259;-47
2021/09/21 04:49:41;;;;;;;;;;;21.50;61.80;;;;;;498969;237;1053;-47
2021/09/21 04:51:42;;;;;;;;;;;21.50;61.80;;;;;;506910;235;1331;-46
2021/09/21 04:53:43;;;;;;;;;;;21.50;61.80;;;;;;498948;237;1084;-46
2021/09/21 04:55:45;;;;;;;;;;;21.50;61.90;;;;;;506988;235;2148;-47
2021/09/21 04:57:46;;;;;;;;;;;21.50;61.90;;;;;;498774;237;1261;-46
2021/09/21 04:59:47;;;;;;;;;;;21.50;61.90;;;;;;506731;235;1035;-46
2021/09/21 05:01:49;;;;;;;;;;;21.40;61.80;;;;;;498675;237;1324;-46
2021/09/21 05:03:50;;;;;;;;;;;21.50;61.80;;;;;;506673;235;1169;-47
2021/09/21 05:05:51;;;;;;;;;;;21.40;61.80;;;;;;499013;237;1174;-46
2021/09/21 05:07:53;;;;;;;;;;;21.50;61.80;;;;;;506672;235;1168;-47
2021/09/21 05:09:54;;;;;;;;;;;21.50;61.90;;;;;;498883;237;1201;-47
2021/09/21 05:11:55;;;;;;;;;;;21.50;62.00;;;;;;506687;235;1143;-47
2021/09/21 05:13:57;;;;;;;;;;;21.50;61.90;;;;;;498742;237;1066;-46
2021/09/21 05:15:58;;;;;;;;;;;21.50;61.80;;;;;;506606;235;2184;-46
2021/09/21 05:17:59;;;;;;;;;;;21.50;61.80;;;;;;498848;237;1082;-46
2021/09/21 05:20:01;;;;;;;;;;;21.50;61.80;;;;;;506983;235;1152;-47
2021/09/21 05:22:02;;;;;;;;;;;21.50;61.70;;;;;;498862;237;1393;-46
2021/09/21 05:24:03;;;;;;;;;;;21.50;61.70;;;;;;506870;235;1208;-46
2021/09/21 05:26:05;;;;;;;;;;;21.50;61.60;;;;;;498712;237;1538;-47
2021/09/21 05:28:06;;;;;;;;;;;21.50;61.80;;;;;;506705;235;1166;-46
2021/09/21 05:30:07;;;;;;;;;;;21.50;61.90;;;;;;498966;237;1076;-46
2021/09/21 05:32:09;;;;;;;;;;;21.50;61.80;;;;;;506708;235;1141;-46
2021/09/21 05:34:10;;;;;;;;;;;21.50;61.80;;;;;;498846;237;1139;-46
2021/09/21 05:36:11;;;;;;;;;;;21.40;61.80;;;;;;506553;235;2142;-46
2021/09/21 05:38:12;;;;;;;;;;;21.50;61.80;;;;;;498895;237;1115;-46
2021/09/21 05:40:16;;;;;;;;;;;21.50;61.80;;;;;;506716;235;1118;-46
2021/09/21 05:42:16;;;;;;;;;;;21.50;61.80;;;;;;498729;237;2971;-47
2021/09/21 05:44:19;;;;;;;;;;;21.50;61.80;;;;;;506563;235;1100;-46
2021/09/21 05:46:21;;;;;;;;;;;21.50;61.70;;;;;;498692;237;1171;-47
2021/09/21 05:48:22;;;;;;;;;;;21.50;61.70;;;;;;506697;235;1227;-46
2021/09/21 05:50:23;;;;;;;;;;;21.50;61.80;;;;;;498795;237;1154;-46
2021/09/21 05:52:24;;;;;;;;;;;21.50;61.80;;;;;;506455;235;1140;-47
2021/09/21 05:54:26;;;;;;;;;;;21.40;61.70;;;;;;498620;237;1158;-46
2021/09/21 05:56:27;;;;;;;;;;;21.50;61.80;;;;;;506488;235;2185;-47
2021/09/21 05:58:28;;;;;;;;;;;21.50;61.70;;;;;;498651;237;1108;-47
2021/09/21 06:00:31;;;;;;;;;;;21.50;61.70;;;;;;506093;235;1217;-46
2021/09/21 06:02:33;;;;;;;;;;;21.50;61.80;;;;;;498224;237;2031;-46
2021/09/21 06:04:34;;;;;;;;;;;21.50;61.70;;;;;;506171;235;1232;-46
2021/09/21 06:06:35;;;;;;;;;;;21.50;61.70;;;;;;498341;237;1447;-46
2021/09/21 06:08:37;;;;;;;;;;;21.50;61.80;;;;;;506122;235;1244;-47
2021/09/21 06:10:38;;;;;;;;;;;21.50;61.70;;;;;;498374;237;1108;-46
2021/09/21 06:12:39;;;;;;;;;;;21.50;61.70;;;;;;506129;235;1309;-46
2021/09/21 06:14:41;;;;;;;;;;;21.50;61.80;;;;;;498174;237;1066;-46
2021/09/21 06:16:42;;;;;;;;;;;21.50;61.70;;;;;;505938;235;2173;-47
2021/09/21 06:18:44;;;;;;;;;;;21.50;61.70;;;;;;498335;237;1108;-47
2021/09/21 06:20:45;;;;;;;;;;;21.50;61.70;;;;;;506119;235;1251;-46
2021/09/21 06:22:46;;;;;;;;;;;21.50;61.60;;;;;;498288;237;1327;-46
2021/09/21 06:24:48;;;;;;;;;;;21.50;61.60;;;;;;506163;235;1126;-46
2021/09/21 06:26:49;;;;;;;;;;;21.50;61.60;;;;;;498121;237;1475;-47
2021/09/21 06:28:50;;;;;;;;;;;21.50;61.60;;;;;;505994;235;1189;-47
2021/09/21 06:30:52;;;;;;;;;;;21.50;61.60;;;;;;498052;237;1218;-46
2021/09/21 06:32:53;;;;;;;;;;;21.50;61.60;;;;;;505934;235;1316;-46
2021/09/21 06:34:54;;;;;;;;;;;21.50;61.50;;;;;;498255;237;1096;-46
2021/09/21 06:36:57;;;;;;;;;;;21.50;61.60;;;;;;506057;235;2120;-46
2021/09/21 06:38:58;;;;;;;;;;;21.50;61.70;;;;;;498241;237;1076;-46
2021/09/21 06:41:00;;;;;;;;;;;21.50;61.60;;;;;;496194;239;1201;-46
2021/09/21 06:43:01;;;;;;;;;;;21.50;61.60;;;;;;506051;235;1255;-47
2021/09/21 06:45:02;;;;;;;;;;;21.50;61.60;;;;;;499116;237;867;-46
2021/09/21 06:47:04;;;;;;;;;;;21.50;61.70;;;;;;506485;235;1273;-46
2021/09/21 06:49:05;;;;;;;;;;;21.50;61.60;;;;;;499154;237;1041;-46
2021/09/21 06:51:06;;;;;;;;;;;21.50;61.70;;;;;;506887;235;1395;-46
2021/09/21 06:53:07;;;;;;;;;;;21.50;61.70;;;;;;498583;237;1077;-47
2021/09/21 06:55:09;;;;;;;;;;;21.50;61.70;;;;;;506610;235;1049;-47
2021/09/21 06:57:10;;;;;;;;;;;21.50;61.60;;;;;;498203;237;2181;-46
2021/09/21 06:59:11;;;;;;;;;;;21.50;61.60;;;;;;506788;235;1067;-46
2021/09/21 07:01:13;;;;;;;;;;;21.50;61.60;;;;;;498466;237;1024;-47
2021/09/21 07:03:14;;;;;;;;;;;21.50;61.60;;;;;;506920;235;886;-47
2021/09/21 07:05:15;;;;;;;;;;;21.50;61.60;;;;;;498453;237;1116;-46
2021/09/21 07:07:17;;;;;;;;;;;21.50;61.60;;;;;;506779;235;852;-46
2021/09/21 07:09:18;;;;;;;;;;;21.60;61.50;;;;;;498909;237;842;-46
2021/09/21 07:11:21;;;;;;;;;;;21.50;61.60;;;;;;506791;235;849;-47
2021/09/21 07:13:21;;;;;;;;;;;21.50;61.50;;;;;;498535;237;2304;-46
2021/09/21 07:15:23;;;;;;;;;;;21.50;61.60;;;;;;506437;235;1073;-46
2021/09/21 07:17:24;;;;;;;;;;;21.50;61.60;;;;;;498881;237;2173;-46
2021/09/21 07:19:25;;;;;;;;;;;21.50;61.50;;;;;;506434;235;910;-47
2021/09/21 07:21:27;;;;;;;;;;;21.50;61.60;;;;;;499032;237;2023;-47
2021/09/21 07:23:27;;;;;;;;;;;21.50;61.70;;;;;;506381;235;2100;-47
2021/09/21 07:25:29;;;;;;;;;;;21.50;61.60;;;;;;498530;237;1107;-47
2021/09/21 07:27:30;;;;;;;;;;;21.50;61.80;;;;;;506649;235;1111;-47
2021/09/21 07:29:31;;;;;;;;;;;21.50;61.70;;;;;;498831;237;895;-47
2021/09/21 07:31:33;;;;;;;;;;;21.50;61.70;;;;;;506584;235;1393;-47
2021/09/21 07:33:34;;;;;;;;;;;21.50;61.60;;;;;;498860;237;1013;-47
2021/09/21 07:35:35;;;;;;;;;;;21.50;61.50;;;;;;506805;235;1158;-47
2021/09/21 07:37:37;;;;;;;;;;;21.60;61.50;;;;;;498424;237;2189;-47
2021/09/21 07:39:38;;;;;;;;;;;21.60;61.50;;;;;;506160;235;859;-47
2021/09/21 07:41:39;;;;;;;;;;;21.50;61.50;;;;;;498727;237;1369;-47
2021/09/21 07:43:43;;;;;;;;;;;21.60;61.40;;;;;;506018;235;1123;-47
2021/09/21 07:45:42;;;;;;;;;;;21.60;61.40;;;;;;497866;239;2120;-46
2021/09/21 07:47:44;;;;;;;;;;;21.60;61.40;;;;;;506294;235;1267;-47
2021/09/21 07:49:45;;;;;;;;;;;21.60;61.40;;;;;;498270;237;1754;-46
2021/09/21 07:51:47;;;;;;;;;;;21.60;61.40;;;;;;505784;235;1335;-46
2021/09/21 07:53:47;;;;;;;;;;;21.60;61.50;;;;;;497964;237;2121;-47
2021/09/21 07:55:50;;;;;;;;;;;21.60;61.50;;;;;;505958;235;1292;-46
2021/09/21 07:57:51;;;;;;;;;;;21.60;61.40;;;;;;497935;239;2193;-46
2021/09/21 07:59:53;;;;;;;;;;;21.60;61.40;;;;;;506804;235;874;-46
2021/09/21 08:01:53;;;;;;;;;;;21.60;61.40;;;;;;497749;237;1362;-46
2021/09/21 08:03:56;;;;;;;;;;;21.60;61.40;;;;;;506739;235;1067;-46
2021/09/21 08:05:56;;;;;;;;;;;21.60;61.40;;;;;;498772;239;2100;-46
2021/09/21 08:07:58;;;;;;;;;;;21.60;61.40;;;;;;506747;235;1238;-47
2021/09/21 08:09:59;;;;;;;;;;;21.60;61.40;;;;;;497923;237;870;-47
2021/09/21 08:12:00;;;;;;;;;;;21.60;61.40;;;;;;506146;235;1153;-46
2021/09/21 08:14:03;;;;;;;;;;;21.60;61.50;;;;;;497916;237;3047;-47
2021/09/21 08:16:04;;;;;;;;;;;21.60;61.40;;;;;;505304;235;2304;-47
2021/09/21 08:18:07;;;;;;;;;;;21.60;61.50;;;;;;498088;237;2121;-47
2021/09/21 08:20:07;;;;;;;;;;;21.50;61.50;;;;;;506011;235;1738;-46
2021/09/21 08:22:09;;;;;;;;;;;21.50;61.50;;;;;;497624;237;1109;-46
2021/09/21 08:24:10;;;;;;;;;;;21.60;61.50;;;;;;505707;235;866;-47
2021/09/21 08:26:11;;;;;;;;;;;21.60;61.50;;;;;;498966;237;1057;-47
2021/09/21 08:28:13;;;;;;;;;;;21.50;61.60;;;;;;506238;235;1052;-47
2021/09/21 08:30:14;;;;;;;;;;;21.50;61.60;;;;;;498945;237;829;-47
2021/09/21 08:32:15;;;;;;;;;;;21.50;61.70;;;;;;506738;235;1166;-48
2021/09/21 08:34:16;;;;;;;;;;;21.50;61.70;;;;;;498751;237;835;-47
2021/09/21 08:36:18;;;;;;;;;;;21.60;61.60;;;;;;506551;235;1155;-47
2021/09/21 08:38:19;;;;;;;;;;;21.50;61.60;;;;;;498402;237;2176;-47
2021/09/21 08:40:20;;;;;;;;;;;21.50;61.50;;;;;;506812;235;1129;-46
2021/09/21 08:42:22;;;;;;;;;;;21.50;61.60;;;;;;498402;237;1123;-46
2021/09/21 08:44:23;;;;;;;;;;;21.50;61.50;;;;;;506460;235;1181;-46
2021/09/21 08:46:25;;;;;;;;;;;21.50;61.60;;;;;;498447;237;1173;-46
2021/09/21 08:48:27;;;;;;;;;;;21.60;61.60;;;;;;506340;235;1061;-47
2021/09/21 08:50:28;;;;;;;;;;;21.60;61.50;;;;;;499017;237;1088;-46
2021/09/21 08:52:29;;;;;;;;;;;21.60;61.50;;;;;;506378;235;1102;-47
2021/09/21 08:54:31;;;;;;;;;;;21.50;61.40;;;;;;498512;237;885;-46
2021/09/21 08:56:32;;;;;;;;;;;21.50;61.50;;;;;;506238;235;1124;-47
2021/09/21 08:58:33;;;;;;;;;;;21.50;61.50;;;;;;498473;237;2156;-47
2021/09/21 09:00:35;;;;;;;;;;;21.50;61.50;;;;;;506842;235;1079;-47
2021/09/21 09:02:36;;;;;;;;;;;21.50;61.60;;;;;;498518;237;1842;-47
2021/09/21 09:04:37;;;;;;;;;;;21.50;61.60;;;;;;506820;235;1064;-46
2021/09/21 09:06:39;;;;;;;;;;;21.50;61.60;;;;;;498674;237;1181;-46
2021/09/21 09:08:41;;;;;;;;;;;21.50;61.60;;;;;;506769;235;920;-46
2021/09/21 09:10:41;;;;;;;;;;;21.60;61.50;;;;;;498253;239;2086;-46
2021/09/21 09:12:42;;;;;;;;;;;21.50;61.50;;;;;;506296;235;1043;-46
2021/09/21 09:14:44;;;;;;;;;;;21.50;61.50;;;;;;498385;237;1163;-47
2021/09/21 09:16:45;;;;;;;;;;;21.50;61.50;;;;;;506131;235;1104;-46
2021/09/21 09:18:47;;;;;;;;;;;21.50;61.50;;;;;;497952;237;1082;-47
2021/09/21 09:20:48;;;;;;;;;;;21.50;61.50;;;;;;505713;235;1219;-46
2021/09/21 09:22:49;;;;;;;;;;;21.50;61.50;;;;;;497179;237;1173;-47
2021/09/21 09:24:52;;;;;;;;;;;21.60;61.50;;;;;;505839;235;1172;-47
2021/09/21 09:26:53;;;;;;;;;;;21.50;61.50;;;;;;497996;237;1326;-46
2021/09/21 09:28:54;;;;;;;;;;;21.50;61.50;;;;;;495991;239;1431;-47
2021/09/21 09:30:56;;;;;;;;;;;21.50;61.60;;;;;;505841;235;1333;-46
2021/09/21 09:32:57;;;;;;;;;;;21.50;61.50;;;;;;497961;237;1137;-46
2021/09/21 09:34:58;;;;;;;;;;;21.50;61.60;;;;;;505863;235;1124;-46
2021/09/21 09:37:00;;;;;;;;;;;21.50;61.70;;;;;;498203;237;2121;-46
2021/09/21 09:39:02;;;;;;;;;;;21.50;61.80;;;;;;506780;235;868;-47
2021/09/21 09:41:02;;;;;;;;;;;21.40;61.70;;;;;;498838;237;2156;-46
2021/09/21 09:43:04;;;;;;;;;;;21.40;61.70;;;;;;506804;235;1008;-46
2021/09/21 09:45:05;;;;;;;;;;;21.40;61.70;;;;;;498614;237;1182;-46
2021/09/21 09:47:06;;;;;;;;;;;21.50;61.70;;;;;;506459;235;1326;-46
2021/09/21 09:49:08;;;;;;;;;;;21.40;61.80;;;;;;498411;237;854;-47
2021/09/21 09:51:09;;;;;;;;;;;21.50;61.70;;;;;;506640;235;1237;-47
2021/09/21 09:53:10;;;;;;;;;;;21.50;61.70;;;;;;498502;237;1072;-47
2021/09/21 09:55:12;;;;;;;;;;;21.40;61.80;;;;;;506848;235;845;-47
2021/09/21 09:57:14;;;;;;;;;;;21.50;61.80;;;;;;498444;237;2184;-46
2021/09/21 09:59:15;;;;;;;;;;;21.50;61.80;;;;;;505792;235;2153;-46
2021/09/21 10:01:16;;;;;;;;;;;21.50;61.70;;;;;;497925;237;1350;-46
2021/09/21 10:03:18;;;;;;;;;;;21.50;61.70;;;;;;506768;235;849;-46
2021/09/21 10:05:19;;;;;;;;;;;21.50;61.60;;;;;;499029;237;1288;-47
2021/09/21 10:07:20;;;;;;;;;;;21.50;61.60;;;;;;506839;235;1309;-47
2021/09/21 10:09:21;;;;;;;;;;;21.40;61.60;;;;;;498900;237;825;-46
2021/09/21 10:11:23;;;;;;;;;;;21.50;61.60;;;;;;506115;235;1425;-46
2021/09/21 10:13:24;;;;;;;;;;;21.50;61.70;;;;;;498364;237;816;-46
2021/09/21 10:15:27;;;;;;;;;;;21.50;61.60;;;;;;506293;235;1166;-47
2021/09/21 10:17:27;;;;;;;;;;;21.50;61.50;;;;;;498677;239;2311;-47
2021/09/21 10:19:29;;;;;;;;;;;21.50;61.50;;;;;;505837;235;1295;-47
2021/09/21 10:21:30;;;;;;;;;;;21.50;61.60;;;;;;498032;237;1310;-46
2021/09/21 10:23:31;;;;;;;;;;;21.50;61.50;;;;;;505904;235;1112;-47
2021/09/21 10:25:33;;;;;;;;;;;21.50;61.60;;;;;;497831;237;1114;-46
2021/09/21 10:27:34;;;;;;;;;;;21.50;61.60;;;;;;505225;235;1217;-46
2021/09/21 10:29:35;;;;;;;;;;;21.50;61.50;;;;;;497938;237;1142;-47
2021/09/21 10:31:39;;;;;;;;;;;21.50;61.40;;;;;;505156;235;1312;-46
2021/09/21 10:33:38;;;;;;;;;;;21.50;61.50;;;;;;497860;239;2245;-46
2021/09/21 10:35:40;;;;;;;;;;;21.50;61.50;;;;;;505910;235;1123;-46
2021/09/21 10:37:41;;;;;;;;;;;21.50;61.50;;;;;;498071;237;2184;-47
2021/09/21 10:39:43;;;;;;;;;;;21.50;61.50;;;;;;505785;235;1299;-47
2021/09/21 10:41:44;;;;;;;;;;;21.50;61.50;;;;;;497955;237;1082;-46
2021/09/21 10:43:47;;;;;;;;;;;21.50;61.40;;;;;;505942;235;1241;-46
2021/09/21 10:45:47;;;;;;;;;;;21.50;61.40;;;;;;497777;237;2191;-46
2021/09/21 10:47:48;;;;;;;;;;;21.50;61.50;;;;;;505499;235;1234;-47
2021/09/21 10:49:49;;;;;;;;;;;21.50;61.50;;;;;;497953;237;1083;-47
2021/09/21 10:51:51;;;;;;;;;;;21.50;61.60;;;;;;505632;235;1209;-46
2021/09/21 10:53:52;;;;;;;;;;;21.50;61.50;;;;;;497951;237;1116;-46
2021/09/21 10:55:53;;;;;;;;;;;21.50;61.40;;;;;;505856;235;1171;-47
2021/09/21 10:57:55;;;;;;;;;;;21.50;61.40;;;;;;497951;237;2196;-46
2021/09/21 10:59:56;;;;;;;;;;;21.50;61.50;;;;;;505784;235;1178;-47
2021/09/21 11:01:57;;;;;;;;;;;21.50;61.50;;;;;;497716;237;1232;-47
2021/09/21 11:03:59;;;;;;;;;;;21.50;61.60;;;;;;505536;235;1364;-47
2021/09/21 11:06:00;;;;;;;;;;;21.50;61.60;;;;;;496996;237;1430;-47
2021/09/21 11:08:02;;;;;;;;;;;21.50;61.60;;;;;;506591;235;1273;-47
2021/09/21 11:10:03;;;;;;;;;;;21.50;61.50;;;;;;498879;237;1078;-47
2021/09/21 11:12:04;;;;;;;;;;;21.50;61.60;;;;;;506783;235;1138;-46
2021/09/21 11:14:06;;;;;;;;;;;21.50;61.60;;;;;;498546;237;871;-48
2021/09/21 11:16:07;;;;;;;;;;;21.50;61.50;;;;;;506354;235;1159;-46
2021/09/21 11:18:09;;;;;;;;;;;21.50;61.40;;;;;;498875;237;2179;-46
2021/09/21 11:20:10;;;;;;;;;;;21.50;61.40;;;;;;506472;235;1294;-47
2021/09/21 11:22:11;;;;;;;;;;;21.50;61.40;;;;;;498505;237;1049;-47
2021/09/21 11:24:13;;;;;;;;;;;21.50;61.40;;;;;;506325;235;873;-46
2021/09/21 11:26:14;;;;;;;;;;;21.50;61.40;;;;;;498652;237;1134;-47
2021/09/21 11:28:15;;;;;;;;;;;21.60;61.40;;;;;;506312;235;1079;-46
2021/09/21 11:30:17;;;;;;;;;;;21.50;61.30;;;;;;498766;237;1108;-46
2021/09/21 11:32:18;;;;;;;;;;;21.50;61.30;;;;;;506289;235;1067;-47
2021/09/21 11:34:20;;;;;;;;;;;21.50;61.30;;;;;;498435;237;876;-46
2021/09/21 11:36:21;;;;;;;;;;;21.50;61.30;;;;;;506174;234;1748;-47
2021/09/21 11:38:22;;;;;;;;;;;21.60;61.40;;;;;;498432;237;2185;-46
2021/09/21 11:40:24;;;;;;;;;;;21.50;61.30;;;;;;506511;235;1105;-47
2021/09/21 11:42:25;;;;;;;;;;;21.50;61.30;;;;;;497585;239;1478;-47
2021/09/21 11:44:26;;;;;;;;;;;21.50;61.30;;;;;;505571;235;1079;-46
2021/09/21 11:46:29;;;;;;;;;;;21.60;61.40;;;;;;497587;237;1203;-46
2021/09/21 11:48:29;;;;;;;;;;;21.50;61.30;;;;;;505447;235;2135;-47
2021/09/21 11:50:30;;;;;;;;;;;21.50;61.40;;;;;;498006;237;1164;-47
2021/09/21 11:52:31;;;;;;;;;;;21.60;61.40;;;;;;505831;235;1182;-47
2021/09/21 11:54:33;;;;;;;;;;;21.50;61.40;;;;;;497863;237;1091;-46
2021/09/21 11:56:35;;;;;;;;;;;21.50;61.40;;;;;;505483;235;1312;-46
2021/09/21 11:58:36;;;;;;;;;;;21.50;61.50;;;;;;497687;237;2197;-46
2021/09/21 12:00:37;;;;;;;;;;;21.50;61.40;;;;;;505498;235;1144;-46
2021/09/21 12:02:39;;;;;;;;;;;21.50;61.50;;;;;;497784;237;1227;-47
2021/09/21 12:04:40;;;;;;;;;;;21.50;61.30;;;;;;505608;235;858;-47
2021/09/21 12:06:41;;;;;;;;;;;21.50;61.40;;;;;;497940;237;1252;-46